createdAt,value
2019-02-14T00:00:37.373Z,97.90
2019-02-14T00:03:25.003Z,97.80
2019-02-14T00:06:13.378Z,97.60
2019-02-14T00:09:01.282Z,97.40
2019-02-14T00:11:49.176Z,97.40
2019-02-14T00:14:38.144Z,97.50
2019-02-14T00:17:26.685Z,97.40
2019-02-14T00:20:14.774Z,97.60
2019-02-14T00:23:02.714Z,97.60
2019-02-14T00:25:51.036Z,97.50
2019-02-14T00:28:39.024Z,97.70
2019-02-14T00:31:27.225Z,97.80
2019-02-14T00:34:15.620Z,97.60
2019-02-14T00:37:03.566Z,97.50
2019-02-14T00:39:51.524Z,97.40
2019-02-14T00:42:39.719Z,97.80
2019-02-14T00:45:27.605Z,97.60
2019-02-14T00:48:15.246Z,97.70
2019-02-14T00:51:02.975Z,97.60
2019-02-14T00:53:50.578Z,97.50
2019-02-14T00:56:38.577Z,97.30
2019-02-14T00:59:26.391Z,97.30
2019-02-14T01:02:14.396Z,97.30
2019-02-14T01:05:02.273Z,97.30
2019-02-14T01:07:50.179Z,97.20
2019-02-14T01:10:38.266Z,97.30
2019-02-14T01:13:26.044Z,97.30
2019-02-14T01:16:13.860Z,97.30
2019-02-14T01:19:01.355Z,97.30
2019-02-14T01:21:49.900Z,97.20
2019-02-14T01:24:37.436Z,97.50
2019-02-14T01:27:25.267Z,97.50
2019-02-14T01:30:13.157Z,97.40
2019-02-14T01:33:01.467Z,97.30
2019-02-14T01:35:49.438Z,97.30
2019-02-14T01:38:37.291Z,97.30
2019-02-14T01:41:25.235Z,97.00
2019-02-14T01:44:13.303Z,96.90
2019-02-14T01:47:00.840Z,97.10
2019-02-14T01:49:48.485Z,97.10
2019-02-14T01:52:36.485Z,97.10
2019-02-14T01:55:24.904Z,97.30
2019-02-14T01:58:13.154Z,97.30
2019-02-14T02:01:00.633Z,97.40
2019-02-14T02:03:48.723Z,97.60
2019-02-14T02:06:36.707Z,97.60
2019-02-14T02:09:25.092Z,97.70
2019-02-14T02:12:13.307Z,97.50
2019-02-14T02:15:01.202Z,97.20
2019-02-14T02:17:49.460Z,97.20
2019-02-14T02:20:37.275Z,97.30
2019-02-14T02:23:25.474Z,97.50
2019-02-14T02:26:13.450Z,97.60
2019-02-14T02:29:01.895Z,97.80
2019-02-14T02:31:50.379Z,97.90
2019-02-14T02:34:38.291Z,98.10
2019-02-14T02:37:26.408Z,98.00
2019-02-14T02:40:14.914Z,97.60
2019-02-14T02:43:03.210Z,97.50
2019-02-14T02:45:51.534Z,97.60
2019-02-14T02:48:39.872Z,97.70
2019-02-14T02:51:27.582Z,97.50
2019-02-14T02:54:16.089Z,97.30
2019-02-14T02:57:03.956Z,97.20
2019-02-14T02:59:52.542Z,97.10
2019-02-14T03:02:40.692Z,97.00
2019-02-14T03:05:29.129Z,97.00
2019-02-14T03:08:17.052Z,97.10
2019-02-14T03:11:05.316Z,97.20
2019-02-14T03:13:53.664Z,97.70
2019-02-14T03:16:41.836Z,97.80
2019-02-14T03:19:29.653Z,97.70
2019-02-14T03:22:17.806Z,97.60
2019-02-14T03:25:07.711Z,97.60
2019-02-14T03:27:56.020Z,97.60
2019-02-14T03:30:44.423Z,97.50
2019-02-14T03:33:32.239Z,97.40
2019-02-14T03:36:20.645Z,97.20
2019-02-14T03:39:08.905Z,97.40
2019-02-14T03:41:57.077Z,97.60
2019-02-14T03:44:45.142Z,97.60
2019-02-14T03:47:32.730Z,97.20
2019-02-14T03:50:20.482Z,97.20
2019-02-14T03:53:09.011Z,97.30
2019-02-14T03:55:56.726Z,97.20
2019-02-14T03:58:44.902Z,97.30
2019-02-14T04:01:33.043Z,97.50
2019-02-14T04:04:21.010Z,97.60
2019-02-14T04:07:08.929Z,97.80
2019-02-14T04:09:57.384Z,98.20
2019-02-14T04:12:45.546Z,98.40
2019-02-14T04:15:33.609Z,98.80
2019-02-14T04:18:21.243Z,98.20
2019-02-14T04:21:09.327Z,98.00
2019-02-14T04:23:59.038Z,98.30
2019-02-14T04:26:46.801Z,97.80
2019-02-14T04:29:35.317Z,97.50
2019-02-14T04:32:23.394Z,97.50
2019-02-14T04:35:11.847Z,97.20
2019-02-14T04:37:59.590Z,97.00
2019-02-14T04:40:47.683Z,96.90
2019-02-14T04:43:35.512Z,96.70
2019-02-14T04:46:23.434Z,97.00
2019-02-14T04:49:11.413Z,96.90
2019-02-14T04:51:59.066Z,97.20
2019-02-14T04:54:47.227Z,97.80
2019-02-14T04:57:35.183Z,98.20
2019-02-14T05:00:22.860Z,98.60
2019-02-14T05:03:10.636Z,98.20
2019-02-14T05:05:58.799Z,97.90
2019-02-14T05:08:49.920Z,98.00
2019-02-14T05:11:38.103Z,98.10
2019-02-14T05:14:26.463Z,98.30
2019-02-14T05:17:14.683Z,97.80
2019-02-14T05:20:02.600Z,97.60
2019-02-14T05:22:50.807Z,97.70
2019-02-14T05:25:39.192Z,97.50
2019-02-14T05:28:27.607Z,97.50
2019-02-14T05:31:15.664Z,97.70
2019-02-14T05:34:03.844Z,97.90
2019-02-14T05:36:54.698Z,97.70
2019-02-14T05:39:41.719Z,97.80
2019-02-14T05:42:29.934Z,97.50
2019-02-14T05:45:17.826Z,97.40
2019-02-14T05:48:06.020Z,98.20
2019-02-14T05:50:54.563Z,97.70
2019-02-14T05:53:42.638Z,97.70
2019-02-14T05:56:30.312Z,97.70
2019-02-14T05:59:18.433Z,97.80
2019-02-14T06:02:05.927Z,98.20
2019-02-14T06:04:54.287Z,98.30
2019-02-14T06:07:42.744Z,98.50
2019-02-14T06:10:30.746Z,98.50
2019-02-14T06:13:18.753Z,98.70
2019-02-14T06:16:06.815Z,99.00
2019-02-14T06:18:54.840Z,98.70
2019-02-14T06:21:42.981Z,98.90
2019-02-14T06:24:30.792Z,99.10
2019-02-14T06:27:19.514Z,98.90
2019-02-14T06:30:09.985Z,98.80
2019-02-14T06:32:58.110Z,98.70
2019-02-14T06:35:46.038Z,99.20
2019-02-14T06:38:33.759Z,99.00
2019-02-14T06:41:21.478Z,98.90
2019-02-14T06:44:09.613Z,98.80
2019-02-14T06:46:57.498Z,98.80
2019-02-14T06:49:45.737Z,98.90
2019-02-14T06:52:34.250Z,98.70
2019-02-14T06:55:22.358Z,99.00
2019-02-14T06:58:10.220Z,99.10
2019-02-14T07:00:58.516Z,99.20
2019-02-14T07:03:46.669Z,99.10
2019-02-14T07:06:34.226Z,98.60
2019-02-14T07:09:22.005Z,98.40
2019-02-14T07:12:12.536Z,98.50
2019-02-14T07:15:00.345Z,98.30
2019-02-14T07:17:48.220Z,98.30
2019-02-14T07:20:36.142Z,98.40
2019-02-14T07:23:24.122Z,98.70
2019-02-14T07:26:12.170Z,98.90
2019-02-14T07:29:00.202Z,99.10
2019-02-14T07:31:47.973Z,99.30
2019-02-14T07:34:35.846Z,99.20
2019-02-14T07:37:26.804Z,99.30
2019-02-14T07:40:13.916Z,99.40
2019-02-14T07:43:02.309Z,99.50
2019-02-14T07:45:50.703Z,99.50
2019-02-14T07:48:39.096Z,99.60
2019-02-14T07:51:27.420Z,99.50
2019-02-14T07:54:15.777Z,99.80
2019-02-14T07:57:04.025Z,99.90
2019-02-14T07:59:52.079Z,99.90
2019-02-14T08:02:39.666Z,99.90
2019-02-14T08:05:27.832Z,99.90
2019-02-14T08:08:15.848Z,99.90
2019-02-14T08:11:03.965Z,99.90
2019-02-14T08:13:52.555Z,99.80
2019-02-14T08:16:40.500Z,99.60
2019-02-14T08:19:28.591Z,99.40
2019-02-14T08:22:16.923Z,99.30
2019-02-14T08:25:05.434Z,99.30
2019-02-14T08:27:53.655Z,99.10
2019-02-14T08:30:41.581Z,98.90
2019-02-14T08:33:29.451Z,98.90
2019-02-14T08:36:17.596Z,98.90
2019-02-14T08:39:06.441Z,98.90
2019-02-14T08:41:55.407Z,99.00
2019-02-14T08:44:43.232Z,99.00
2019-02-14T08:47:31.364Z,99.00
2019-02-14T08:50:19.598Z,99.00
2019-02-14T08:53:07.924Z,98.60
2019-02-14T08:55:55.504Z,98.10
2019-02-14T08:58:43.592Z,98.40
2019-02-14T09:01:31.081Z,97.60
2019-02-14T09:04:19.085Z,97.00
2019-02-14T09:07:06.860Z,97.20
2019-02-14T09:09:55.224Z,97.00
2019-02-14T09:12:42.749Z,96.80
2019-02-14T09:15:31.238Z,96.80
2019-02-14T09:18:19.120Z,96.90
2019-02-14T09:21:07.372Z,96.60
2019-02-14T09:23:56.299Z,96.40
2019-02-14T09:26:44.395Z,96.50
2019-02-14T09:29:32.403Z,95.70
2019-02-14T09:32:23.754Z,95.60
2019-02-14T09:35:11.642Z,95.10
2019-02-14T09:38:03.404Z,94.70
2019-02-14T09:40:49.005Z,94.30
2019-02-14T09:43:37.049Z,94.70
2019-02-14T09:46:24.698Z,95.30
2019-02-14T09:49:12.273Z,94.80
2019-02-14T09:52:00.434Z,94.10
2019-02-14T09:54:48.685Z,93.00
2019-02-14T09:57:36.621Z,93.10
2019-02-14T10:00:24.947Z,92.30
2019-02-14T10:03:12.820Z,91.90
2019-02-14T10:06:00.867Z,91.90
2019-02-14T10:08:48.730Z,91.40
2019-02-14T10:11:36.957Z,91.20
2019-02-14T10:14:25.139Z,91.40
2019-02-14T10:17:21.866Z,91.10
2019-02-14T10:20:03.142Z,90.90
2019-02-14T10:22:51.250Z,90.80
2019-02-14T10:25:39.222Z,90.00
2019-02-14T10:28:27.387Z,91.10
2019-02-14T10:31:15.303Z,90.30
2019-02-14T10:34:03.282Z,89.80
2019-02-14T10:36:51.296Z,90.00
2019-02-14T10:39:39.103Z,90.20
2019-02-14T10:42:26.856Z,89.30
2019-02-14T10:45:16.016Z,89.50
2019-02-14T10:48:03.724Z,89.30
2019-02-14T10:50:51.570Z,89.30
2019-02-14T10:53:39.746Z,87.90
2019-02-14T10:56:28.090Z,88.90
2019-02-14T10:59:16.501Z,88.50
2019-02-14T11:02:05.367Z,87.70
2019-02-14T11:04:53.204Z,85.80
2019-02-14T11:07:40.628Z,86.00
2019-02-14T11:10:28.105Z,86.70
2019-02-14T11:13:16.293Z,85.50
2019-02-14T11:16:05.536Z,83.10
2019-02-14T11:18:53.437Z,82.70
2019-02-14T11:21:41.148Z,83.90
2019-02-14T11:24:28.956Z,83.90
2019-02-14T11:27:16.909Z,84.90
2019-02-14T11:30:05.313Z,84.80
2019-02-14T11:32:52.659Z,83.60
2019-02-14T11:35:40.515Z,81.90
2019-02-14T11:38:28.548Z,82.10
2019-02-14T11:41:16.187Z,81.30
2019-02-14T11:44:04.309Z,81.10
2019-02-14T11:46:52.028Z,80.80
2019-02-14T11:49:40.416Z,80.50
2019-02-14T11:52:28.586Z,78.90
2019-02-14T11:55:17.131Z,78.90
2019-02-14T11:58:04.945Z,79.10
2019-02-14T12:00:53.230Z,79.20
2019-02-14T12:03:41.452Z,77.70
2019-02-14T12:06:29.258Z,77.00
2019-02-14T12:09:17.326Z,78.60
2019-02-14T12:12:05.449Z,75.80
2019-02-14T12:14:53.586Z,75.00
2019-02-14T12:17:41.534Z,74.70
2019-02-14T12:20:29.459Z,72.90
2019-02-14T12:23:17.569Z,72.60
2019-02-14T12:26:05.858Z,72.60
2019-02-14T12:28:53.645Z,76.50
2019-02-14T12:31:41.431Z,74.10
2019-02-14T12:34:29.688Z,73.30
2019-02-14T12:37:17.924Z,71.80
2019-02-14T12:40:06.890Z,71.00
2019-02-14T12:42:54.543Z,69.60
2019-02-14T12:45:42.163Z,70.80
2019-02-14T12:48:30.497Z,72.10
2019-02-14T12:51:18.147Z,71.10
2019-02-14T12:54:05.896Z,67.60
2019-02-14T12:56:53.504Z,68.30
2019-02-14T12:59:41.709Z,69.20
2019-02-14T13:02:29.780Z,68.70
2019-02-14T13:05:17.935Z,67.60
2019-02-14T13:08:05.769Z,68.70
2019-02-14T13:10:53.726Z,65.10
2019-02-14T13:13:41.565Z,67.70
2019-02-14T13:16:28.914Z,65.40
2019-02-14T13:19:16.396Z,66.10
2019-02-14T13:22:04.327Z,67.70
2019-02-14T13:24:52.408Z,66.00
2019-02-14T13:27:39.946Z,67.00
2019-02-14T13:30:27.862Z,65.00
2019-02-14T13:33:15.818Z,64.40
2019-02-14T13:36:03.666Z,63.70
2019-02-14T13:38:51.535Z,63.30
2019-02-14T13:41:39.593Z,64.50
2019-02-14T13:44:27.459Z,64.10
2019-02-14T13:47:15.538Z,65.50
2019-02-14T13:50:03.624Z,64.70
2019-02-14T13:52:51.350Z,65.90
2019-02-14T13:55:39.276Z,65.40
2019-02-14T13:58:27.477Z,65.90
2019-02-14T14:01:15.221Z,65.60
2019-02-14T14:04:03.262Z,64.10
2019-02-14T14:06:51.501Z,64.70
2019-02-14T14:09:39.700Z,63.50
2019-02-14T14:12:27.106Z,64.00
2019-02-14T14:15:15.059Z,63.50
2019-02-14T14:18:03.188Z,63.90
2019-02-14T14:20:51.099Z,64.90
2019-02-14T14:23:38.872Z,65.40
2019-02-14T14:26:27.231Z,64.80
2019-02-14T14:29:15.318Z,64.50
2019-02-14T14:32:03.292Z,63.90
2019-02-14T14:34:51.331Z,64.70
2019-02-14T14:37:38.878Z,64.90
2019-02-14T14:40:26.744Z,64.00
2019-02-14T14:43:33.329Z,64.50
2019-02-14T14:46:34.272Z,63.90
2019-02-14T14:49:22.630Z,63.20
2019-02-14T14:52:10.929Z,63.40
2019-02-14T14:54:58.658Z,63.30
2019-02-14T14:57:46.724Z,62.00
2019-02-14T15:00:34.689Z,61.60
2019-02-14T15:03:24.300Z,64.00
2019-02-14T15:06:12.360Z,63.10
2019-02-14T15:09:00.692Z,62.90
2019-02-14T15:11:48.759Z,63.30
2019-02-14T15:14:36.855Z,63.60
2019-02-14T15:17:24.915Z,62.90
2019-02-14T15:20:12.746Z,62.30
2019-02-14T15:23:00.534Z,61.90
2019-02-14T15:25:48.314Z,62.90
2019-02-14T15:28:37.530Z,63.00
2019-02-14T15:31:25.858Z,63.40
2019-02-14T15:34:13.936Z,63.60
2019-02-14T15:37:02.218Z,63.80
2019-02-14T15:39:50.182Z,65.40
2019-02-14T15:42:37.917Z,65.30
2019-02-14T15:45:25.848Z,65.10
2019-02-14T15:48:14.074Z,65.40
2019-02-14T15:51:02.052Z,65.10
2019-02-14T15:53:50.150Z,65.10
2019-02-14T15:56:38.443Z,65.30
2019-02-14T15:59:28.665Z,66.30
2019-02-14T16:02:16.042Z,66.30
2019-02-14T16:05:03.629Z,66.60
2019-02-14T16:07:51.364Z,67.50
2019-02-14T16:10:39.129Z,67.70
2019-02-14T16:13:29.128Z,67.90
2019-02-14T16:16:17.233Z,67.90
2019-02-14T16:19:04.863Z,68.50
2019-02-14T16:21:54.300Z,71.40
2019-02-14T16:24:43.040Z,72.70
2019-02-14T16:27:31.347Z,72.60
2019-02-14T16:30:18.943Z,71.70
2019-02-14T16:33:06.920Z,72.50
2019-02-14T16:35:54.802Z,71.60
2019-02-14T16:38:43.185Z,72.30
2019-02-14T16:41:31.161Z,71.90
2019-02-14T16:44:18.801Z,74.20
2019-02-14T16:47:06.788Z,75.40
2019-02-14T16:49:54.756Z,75.70
2019-02-14T16:52:42.842Z,75.00
2019-02-14T16:55:30.749Z,75.70
2019-02-14T16:58:18.617Z,77.50
2019-02-14T17:01:06.925Z,78.00
2019-02-14T17:03:54.866Z,78.20
2019-02-14T17:06:42.692Z,79.00
2019-02-14T17:09:30.452Z,79.80
2019-02-14T17:12:18.799Z,81.30
2019-02-14T17:15:07.540Z,80.50
2019-02-14T17:17:55.202Z,82.60
2019-02-14T17:20:42.975Z,84.50
2019-02-14T17:23:31.095Z,86.00
2019-02-14T17:26:19.154Z,86.30
2019-02-14T17:29:07.676Z,86.90
2019-02-14T17:31:55.275Z,87.20
2019-02-14T17:34:43.404Z,88.10
2019-02-14T17:37:31.297Z,87.80
2019-02-14T17:40:19.329Z,87.90
2019-02-14T17:43:07.276Z,88.90
2019-02-14T17:45:55.244Z,89.30
2019-02-14T17:48:43.692Z,89.30
2019-02-14T17:51:31.548Z,89.90
2019-02-14T17:54:19.457Z,90.10
2019-02-14T17:57:07.012Z,90.30
2019-02-14T17:59:55.300Z,90.50
2019-02-14T18:02:42.983Z,90.50
2019-02-14T18:05:31.046Z,90.40
2019-02-14T18:08:18.703Z,90.60
2019-02-14T18:11:06.728Z,90.80
2019-02-14T18:13:54.457Z,91.20
2019-02-14T18:16:42.250Z,91.20
2019-02-14T18:19:30.493Z,91.30
2019-02-14T18:22:18.772Z,91.40
2019-02-14T18:25:07.385Z,91.80
2019-02-14T18:27:55.019Z,91.80
2019-02-14T18:30:42.781Z,91.90
2019-02-14T18:33:30.506Z,91.90
2019-02-14T18:36:18.679Z,91.90
2019-02-14T18:39:07.667Z,92.30
2019-02-14T18:41:55.292Z,92.50
2019-02-14T18:44:43.130Z,92.60
2019-02-14T18:47:39.296Z,92.70
2019-02-14T18:50:20.591Z,92.90
2019-02-14T18:53:08.565Z,93.00
2019-02-14T18:55:56.529Z,93.10
2019-02-14T18:58:44.793Z,93.10
2019-02-14T19:01:32.562Z,93.10
2019-02-14T19:04:20.590Z,93.20
2019-02-14T19:07:08.982Z,93.30
2019-02-14T19:09:57.028Z,93.30
2019-02-14T19:12:45.141Z,93.50
2019-02-14T19:15:33.082Z,93.60
2019-02-14T19:18:22.309Z,94.00
2019-02-14T19:21:10.359Z,94.10
2019-02-14T19:23:58.671Z,94.10
2019-02-14T19:26:46.846Z,94.10
2019-02-14T19:29:36.391Z,94.30
2019-02-14T19:32:25.083Z,94.30
2019-02-14T19:35:13.225Z,94.50
2019-02-14T19:38:01.082Z,94.90
2019-02-14T19:40:49.272Z,95.00
2019-02-14T19:43:37.294Z,95.00
2019-02-14T19:46:25.409Z,94.90
2019-02-14T19:49:13.164Z,94.90
2019-02-14T19:52:01.739Z,94.70
2019-02-14T19:54:49.799Z,94.50
2019-02-14T19:57:38.122Z,94.60
2019-02-14T20:00:26.273Z,94.70
2019-02-14T20:03:14.337Z,94.80
2019-02-14T20:06:04.015Z,94.90
2019-02-14T20:08:52.129Z,95.10
2019-02-14T20:11:40.128Z,95.20
2019-02-14T20:14:28.041Z,95.10
2019-02-14T20:17:16.928Z,95.40
2019-02-14T20:20:05.279Z,95.40
2019-02-14T20:22:53.144Z,95.30
2019-02-14T20:25:43.017Z,95.40
2019-02-14T20:28:31.222Z,95.50
2019-02-14T20:31:20.080Z,95.60
2019-02-14T20:34:07.707Z,95.60
2019-02-14T20:36:55.741Z,95.40
2019-02-14T20:39:43.580Z,95.90
2019-02-14T20:42:31.709Z,95.80
2019-02-14T20:45:20.187Z,95.70
2019-02-14T20:48:08.719Z,95.70
2019-02-14T20:50:56.973Z,95.70
2019-02-14T20:53:44.749Z,96.10
2019-02-14T20:56:32.595Z,96.20
2019-02-14T20:59:20.875Z,96.00
2019-02-14T21:02:08.680Z,96.30
2019-02-14T21:04:56.595Z,96.40
2019-02-14T21:07:45.069Z,96.50
2019-02-14T21:10:32.985Z,96.50
2019-02-14T21:13:22.942Z,96.60
2019-02-14T21:16:11.579Z,96.60
2019-02-14T21:18:59.859Z,96.50
2019-02-14T21:21:51.201Z,96.50
2019-02-14T21:24:39.067Z,96.30
2019-02-14T21:27:27.073Z,96.30
2019-02-14T21:30:15.290Z,96.30
2019-02-14T21:33:03.446Z,96.40
2019-02-14T21:35:51.336Z,96.40
2019-02-14T21:38:39.119Z,96.60
2019-02-14T21:41:27.233Z,96.80
2019-02-14T21:44:15.109Z,96.50
2019-02-14T21:47:03.611Z,96.80
2019-02-14T21:49:51.903Z,96.60
2019-02-14T21:52:40.215Z,97.10
2019-02-14T21:55:28.495Z,97.40
2019-02-14T21:58:16.212Z,97.40
2019-02-14T22:01:04.616Z,97.50
2019-02-14T22:03:53.523Z,97.60
2019-02-14T22:06:41.747Z,97.50
2019-02-14T22:09:29.911Z,97.60
2019-02-14T22:12:37.114Z,97.70
2019-02-14T22:15:10.639Z,97.60
2019-02-14T22:17:58.812Z,97.30
2019-02-14T22:20:47.137Z,97.30
2019-02-14T22:23:35.306Z,97.30
2019-02-14T22:26:23.463Z,97.20
2019-02-14T22:29:11.574Z,97.20
2019-02-14T22:31:59.535Z,97.20
2019-02-14T22:34:48.264Z,97.60
2019-02-14T22:37:36.002Z,97.60
2019-02-14T22:40:24.141Z,97.30
2019-02-14T22:43:12.285Z,97.30
2019-02-14T22:46:00.231Z,97.50
2019-02-14T22:48:49.529Z,97.50
2019-02-14T22:51:37.902Z,97.30
2019-02-14T22:54:25.958Z,97.40
2019-02-14T22:57:13.953Z,97.20
2019-02-14T23:00:01.801Z,97.30
2019-02-14T23:02:49.850Z,97.20
2019-02-14T23:05:38.145Z,97.30
2019-02-14T23:08:26.237Z,97.20
2019-02-14T23:11:14.163Z,96.90
2019-02-14T23:14:02.935Z,96.90
2019-02-14T23:16:51.149Z,96.80
2019-02-14T23:19:39.159Z,96.80
2019-02-14T23:22:27.409Z,96.80
2019-02-14T23:25:16.553Z,96.80
2019-02-14T23:28:04.982Z,97.10
2019-02-14T23:30:52.927Z,97.50
2019-02-14T23:33:40.836Z,97.70
2019-02-14T23:36:28.898Z,97.70
2019-02-14T23:39:17.002Z,97.60
2019-02-14T23:42:05.115Z,97.50
2019-02-14T23:44:53.021Z,97.60
2019-02-14T23:47:40.964Z,97.70
2019-02-14T23:50:29.773Z,97.40
2019-02-14T23:53:17.790Z,97.40
2019-02-14T23:56:05.452Z,97.30
2019-02-14T23:58:53.607Z,97.30
